Time;durP1;ratioP1;P1;durP2;ratioP2;P2;SDS_P1;SDS_P2;PMS_P1;PMS_P2;Temp;Humidity;BMP_temperature;BMP_pressure;BME280_temperature;BME280_humidity;BME280_pressure;Samples;Min_cycle;Max_cycle;Signal;HPM_P1;HPM_P2
2022/05/01 00:01:58;;;;;;;12.40;9.00;;;8.40;99.90;;;;;;4258771;27;20032;-58
2022/05/01 00:03:59;;;;;;;13.47;8.27;;;8.40;99.90;;;;;;4260498;27;20072;-57
2022/05/01 00:06:01;;;;;;;14.23;8.53;;;8.30;99.90;;;;;;4261362;27;20095;-57
2022/05/01 00:08:04;;;;;;;14.30;7.77;;;8.40;99.90;;;;;;4277413;27;20078;-60
2022/05/01 00:10:06;;;;;;;11.87;7.60;;;8.30;99.90;;;;;;4276479;27;20462;-61
2022/05/01 00:12:08;;;;;;;13.77;8.33;;;8.30;99.90;;;;;;4276775;27;20110;-57
2022/05/01 00:14:09;;;;;;;14.80;7.40;;;8.30;99.90;;;;;;4276002;27;20034;-56
2022/05/01 00:16:11;;;;;;;12.27;7.03;;;8.30;99.90;;;;;;4277332;27;20086;-54
2022/05/01 00:18:13;;;;;;;13.07;7.30;;;8.30;99.90;;;;;;4275691;27;20038;-57
2022/05/01 00:20:15;;;;;;;13.40;7.43;;;8.20;99.90;;;;;;4277241;27;20027;-56
2022/05/01 00:22:16;;;;;;;12.67;7.27;;;8.10;99.90;;;;;;4257168;27;20030;-55
2022/05/01 00:24:17;;;;;;;13.43;7.40;;;8.00;99.90;;;;;;4258249;27;20091;-56
2022/05/01 00:26:18;;;;;;;12.47;7.30;;;8.00;99.90;;;;;;4261658;27;20048;-69
2022/05/01 00:28:19;;;;;;;12.40;7.57;;;8.00;99.90;;;;;;4259393;27;20031;-58
2022/05/01 00:30:21;;;;;;;10.30;6.87;;;8.00;99.90;;;;;;4259133;27;20367;-58
2022/05/01 00:32:22;;;;;;;9.27;6.70;;;8.00;99.90;;;;;;4258658;27;20038;-62
2022/05/01 00:36:53;;;;;;;13.88;7.35;;;7.90;99.90;;;;;;4222532;28;20047;-59
2022/05/01 00:39:05;;;;;;;14.97;7.70;;;7.80;99.90;;;;;;4273309;27;20022;-58
2022/05/01 00:41:07;;;;;;;10.70;7.57;;;7.80;99.90;;;;;;4275553;27;20022;-64
2022/05/01 00:43:09;;;;;;;11.40;7.27;;;7.70;99.90;;;;;;4275654;27;21091;-65
2022/05/01 00:45:10;;;;;;;18.10;7.87;;;7.70;99.90;;;;;;4261268;27;20455;-57
2022/05/01 00:47:12;;;;;;;11.17;7.23;;;7.70;99.90;;;;;;4259683;27;20086;-55
2022/05/01 00:49:19;;;;;;;12.70;7.13;;;7.60;99.90;;;;;;4258491;27;20046;-57
2022/05/01 00:51:21;;;;;;;15.97;7.63;;;7.70;99.90;;;;;;4259796;27;20064;-65
2022/05/01 00:53:22;;;;;;;15.10;8.27;;;7.70;99.90;;;;;;4258187;27;20137;-54
2022/05/01 00:55:23;;;;;;;12.90;7.63;;;7.80;99.90;;;;;;4259304;27;20039;-52
2022/05/01 00:57:25;;;;;;;10.23;7.07;;;7.80;99.90;;;;;;4257645;27;20087;-56
2022/05/01 00:59:26;;;;;;;10.57;7.13;;;7.80;99.90;;;;;;4259092;27;20103;-54
2022/05/01 01:01:27;;;;;;;11.70;7.20;;;7.80;99.90;;;;;;4257713;27;20042;-57
2022/05/01 01:03:29;;;;;;;14.57;6.90;;;7.80;99.90;;;;;;4268228;27;20098;-58
2022/05/01 01:05:30;;;;;;;13.13;6.73;;;7.80;99.90;;;;;;4275501;27;20090;-58
2022/05/01 01:07:31;;;;;;;12.80;6.70;;;7.80;99.90;;;;;;4276051;27;20030;-56
2022/05/01 01:09:35;;;;;;;13.07;7.03;;;7.80;99.90;;;;;;4275669;27;20034;-63
2022/05/01 01:11:38;;;;;;;13.97;7.23;;;7.70;99.90;;;;;;4275765;27;20513;-56
2022/05/01 01:13:39;;;;;;;9.83;6.33;;;7.70;99.90;;;;;;4275470;27;20030;-56
2022/05/01 01:15:41;;;;;;;12.63;6.83;;;7.70;99.90;;;;;;4274952;27;20122;-55
2022/05/01 01:17:43;;;;;;;11.13;7.13;;;7.70;99.90;;;;;;4276045;27;20043;-55
2022/05/01 01:19:45;;;;;;;10.87;6.97;;;7.70;99.90;;;;;;4275546;27;20038;-60
2022/05/01 01:21:51;;;;;;;12.77;8.20;;;7.60;99.90;;;;;;4272546;27;20079;-54
2022/05/01 01:23:53;;;;;;;10.53;6.73;;;7.60;99.90;;;;;;4257088;27;20038;-56
2022/05/01 01:25:54;;;;;;;11.93;6.30;;;7.60;99.90;;;;;;4259300;27;20031;-55
2022/05/01 01:27:59;;;;;;;13.37;6.90;;;7.60;99.90;;;;;;4257755;27;20038;-59
2022/05/01 01:32:31;;;;;;;10.97;6.23;;;7.50;99.90;;;;;;4225090;27;20042;-52
2022/05/01 01:34:36;;;;;;;9.33;6.33;;;7.40;99.90;;;;;;4258402;27;20440;-55
2022/05/01 01:36:40;;;;;;;8.77;5.93;;;7.40;99.90;;;;;;4257513;27;20026;-57
2022/05/01 01:38:42;;;;;;;11.87;6.67;;;7.40;99.90;;;;;;4273298;27;20082;-59
2022/05/01 01:40:51;;;;;;;14.70;7.03;;;7.40;99.90;;;;;;4272976;27;20067;-58
2022/05/01 01:42:55;;;;;;;9.10;6.07;;;7.30;99.90;;;;;;4275419;27;20046;-58
2022/05/01 01:44:58;;;;;;;11.57;6.43;;;7.30;99.90;;;;;;4274772;27;20030;-55
2022/05/01 01:46:59;;;;;;;10.70;6.77;;;7.20;99.90;;;;;;4275926;27;20030;-55
2022/05/01 01:49:00;;;;;;;10.67;6.20;;;7.20;99.90;;;;;;4274061;27;20042;-52
2022/05/01 01:51:03;;;;;;;10.53;6.43;;;7.20;99.90;;;;;;4275149;27;20058;-57
2022/05/01 01:53:04;;;;;;;8.23;6.43;;;7.10;99.90;;;;;;4274395;27;20063;-55
2022/05/01 01:55:07;;;;;;;11.47;6.53;;;7.10;99.90;;;;;;4274870;27;20086;-56
2022/05/01 01:57:08;;;;;;;8.50;6.70;;;7.10;99.90;;;;;;4274800;27;20022;-55
2022/05/01 01:59:11;;;;;;;11.00;6.30;;;7.10;99.90;;;;;;4274437;27;20022;-58
2022/05/01 02:01:12;;;;;;;10.17;6.33;;;7.10;99.90;;;;;;4251876;27;20026;-59
2022/05/01 02:03:13;;;;;;;13.70;7.07;;;7.10;99.90;;;;;;4257323;27;20034;-58
2022/05/01 02:05:14;;;;;;;11.47;6.30;;;7.00;99.90;;;;;;4258340;27;20034;-58
2022/05/01 02:07:16;;;;;;;11.67;6.43;;;6.90;99.90;;;;;;4256602;27;20039;-55
2022/05/01 02:09:18;;;;;;;10.53;6.40;;;6.90;99.90;;;;;;4274199;27;20090;-54
2022/05/01 02:11:20;;;;;;;9.63;6.77;;;6.90;99.90;;;;;;4274413;27;20491;-60
2022/05/01 02:13:21;;;;;;;11.30;7.30;;;6.90;99.90;;;;;;4275128;27;20102;-66
2022/05/01 02:15:22;;;;;;;10.13;6.63;;;7.00;99.90;;;;;;4274503;27;20486;-54
2022/05/01 02:17:23;;;;;;;9.93;5.73;;;7.00;99.90;;;;;;4275535;27;20090;-68
2022/05/01 02:19:25;;;;;;;10.63;6.70;;;7.00;99.90;;;;;;4262044;27;20034;-58
2022/05/01 02:21:35;;;;;;;9.00;6.53;;;6.90;99.90;;;;;;4257819;27;20039;-61
2022/05/01 02:23:36;;;;;;;;;;;6.90;99.90;;;;;;4257663;27;20030;-59
2022/05/01 02:25:40;;;;;;;;;;;6.90;99.90;;;;;;4258610;27;20328;-63
2022/05/01 02:27:41;;;;;;;9.17;6.40;;;6.90;99.90;;;;;;4257035;27;19899;-53
2022/05/01 02:29:44;;;;;;;8.93;6.17;;;6.90;99.90;;;;;;4239273;27;20571;-60
2022/05/01 02:31:45;;;;;;;12.47;7.17;;;6.90;99.90;;;;;;4257110;27;20019;-53
2022/05/01 02:33:46;;;;;;;12.63;7.23;;;6.80;99.90;;;;;;4256898;27;20051;-58
2022/05/01 02:35:48;;;;;;;15.23;7.00;;;6.70;99.90;;;;;;4257015;27;20079;-57
2022/05/01 02:37:49;;;;;;;15.97;7.77;;;6.70;99.90;;;;;;4245067;27;20046;-58
2022/05/01 02:39:50;;;;;;;17.07;8.07;;;6.60;99.90;;;;;;4256657;27;20118;-58
2022/05/01 02:41:51;;;;;;;11.40;7.80;;;6.60;99.90;;;;;;4254891;27;20555;-57
2022/05/01 02:43:54;;;;;;;9.80;6.53;;;6.50;99.90;;;;;;4255826;27;20087;-56
2022/05/01 02:45:55;;;;;;;14.47;7.60;;;6.50;99.90;;;;;;4273898;27;20026;-53
2022/05/01 02:47:56;;;;;;;9.87;6.83;;;6.50;99.90;;;;;;4274985;27;20038;-58
2022/05/01 02:49:57;;;;;;;10.20;6.47;;;6.50;99.90;;;;;;4254974;27;20050;-55
2022/05/01 02:51:58;;;;;;;12.97;7.00;;;6.40;99.90;;;;;;4275108;27;20099;-56
2022/05/01 02:54:01;;;;;;;15.93;7.27;;;6.50;99.90;;;;;;4273335;27;20026;-58
2022/05/01 02:56:02;;;;;;;10.83;5.77;;;6.50;99.90;;;;;;4274948;27;20027;-53
2022/05/01 02:58:03;;;;;;;10.07;6.10;;;6.50;99.90;;;;;;4275510;27;20062;-64
2022/05/01 03:00:05;;;;;;;9.73;5.90;;;6.60;99.90;;;;;;4275347;27;20030;-55
2022/05/01 03:02:06;;;;;;;12.17;6.67;;;6.60;99.90;;;;;;4268366;27;20086;-54
2022/05/01 03:04:07;;;;;;;10.87;6.53;;;6.60;99.90;;;;;;4260717;27;20591;-56
2022/05/01 03:06:09;;;;;;;11.67;5.73;;;6.60;99.90;;;;;;4261365;27;20436;-52
2022/05/01 03:08:12;;;;;;;11.60;5.77;;;6.60;99.90;;;;;;4260427;27;20035;-59
2022/05/01 03:10:13;;;;;;;8.27;5.63;;;6.60;99.90;;;;;;4260756;27;20026;-53
2022/05/01 03:12:14;;;;;;;10.63;6.03;;;6.60;99.90;;;;;;4259765;27;20027;-67
2022/05/01 03:14:16;;;;;;;12.80;6.83;;;6.70;99.90;;;;;;4275515;27;20110;-58
2022/05/01 03:16:17;;;;;;;11.07;5.20;;;6.60;99.90;;;;;;4276944;27;20854;-60
2022/05/01 03:23:19;;;;;;;14.53;6.93;;;6.70;99.90;;;;;;4206510;28;20079;-55
2022/05/01 03:25:20;;;;;;;12.03;7.23;;;6.70;99.90;;;;;;4212928;27;20549;-67
2022/05/01 03:27:22;;;;;;;10.97;6.00;;;6.70;99.90;;;;;;4264007;27;20042;-56
2022/05/01 03:29:24;;;;;;;11.67;5.97;;;6.80;99.90;;;;;;4259777;27;20643;-58
2022/05/01 03:31:27;;;;;;;8.67;5.33;;;6.80;99.90;;;;;;4275909;27;20034;-54
2022/05/01 03:33:28;;;;;;;11.70;6.17;;;6.90;99.90;;;;;;4277123;27;20066;-60
2022/05/01 03:35:30;;;;;;;9.30;5.63;;;7.10;99.90;;;;;;4276382;27;20765;-62
2022/05/01 03:37:31;;;;;;;7.40;5.77;;;7.20;99.90;;;;;;4277172;27;20120;-55
2022/05/01 03:39:35;;;;;;;8.87;6.07;;;7.30;99.90;;;;;;4278136;27;20079;-58
2022/05/01 03:41:38;;;;;;;10.70;6.00;;;7.50;99.90;;;;;;4275645;27;20471;-57
2022/05/01 03:43:39;;;;;;;8.40;5.77;;;7.70;99.90;;;;;;4272963;27;20031;-57
2022/05/01 03:45:40;;;;;;;10.10;6.07;;;8.00;99.90;;;;;;4258489;27;20091;-58
2022/05/01 03:47:42;;;;;;;10.83;6.93;;;8.10;99.90;;;;;;4259994;27;20563;-57
2022/05/01 03:49:43;;;;;;;15.27;7.67;;;8.30;99.90;;;;;;4259645;27;20067;-58
2022/05/01 03:51:44;;;;;;;13.77;7.83;;;8.40;99.90;;;;;;4259275;27;20023;-58
2022/05/01 03:53:45;;;;;;;10.83;7.00;;;8.60;99.90;;;;;;4260130;27;20031;-66
2022/05/01 03:55:47;;;;;;;11.47;7.30;;;8.80;99.90;;;;;;4260319;27;20083;-59
2022/05/01 03:57:48;;;;;;;10.60;6.73;;;9.20;99.90;;;;;;4259984;27;20035;-66
2022/05/01 03:59:49;;;;;;;9.90;6.60;;;9.50;99.90;;;;;;4258437;27;20031;-59
2022/05/01 04:01:50;;;;;;;9.90;7.03;;;9.90;99.90;;;;;;4274836;27;20042;-56
2022/05/01 04:03:53;;;;;;;11.30;6.50;;;10.20;99.90;;;;;;4275138;27;20034;-56
2022/05/01 04:05:54;;;;;;;12.93;6.60;;;10.60;99.90;;;;;;4277467;27;20538;-58
2022/05/01 04:07:55;;;;;;;12.20;6.77;;;11.00;99.90;;;;;;4275311;27;20430;-67
2022/05/01 04:09:57;;;;;;;8.43;5.97;;;11.30;99.90;;;;;;4265352;27;20122;-53
2022/05/01 04:11:58;;;;;;;10.73;7.03;;;11.30;99.90;;;;;;4258920;27;20039;-58
2022/05/01 04:14:01;;;;;;;11.00;6.40;;;11.30;99.90;;;;;;4260680;27;20095;-59
2022/05/01 04:16:03;;;;;;;9.03;6.07;;;11.30;99.90;;;;;;4258773;27;20103;-57
2022/05/01 04:18:05;;;;;;;11.40;6.33;;;11.30;99.90;;;;;;4259794;27;20038;-65
2022/05/01 04:20:12;;;;;;;10.97;7.50;;;11.30;99.90;;;;;;4265328;27;20030;-59
2022/05/01 04:22:14;;;;;;;12.63;6.70;;;11.30;99.90;;;;;;4276332;27;20833;-66
2022/05/01 04:24:15;;;;;;;12.53;6.87;;;11.40;99.90;;;;;;4276428;27;20034;-58
2022/05/01 04:26:16;;;;;;;11.67;6.27;;;11.70;99.90;;;;;;4276543;27;20019;-59
2022/05/01 04:28:17;;;;;;;7.33;5.73;;;12.00;99.90;;;;;;4275903;27;20925;-58
2022/05/01 04:30:20;;;;;;;12.37;5.97;;;12.60;99.90;;;;;;4275059;27;20038;-57
2022/05/01 04:32:22;;;;;;;13.63;6.60;;;13.20;99.90;;;;;;4277107;27;20026;-54
2022/05/01 04:34:23;;;;;;;11.73;6.00;;;13.80;99.90;;;;;;4274260;27;20119;-61
2022/05/01 04:36:25;;;;;;;9.30;6.00;;;14.00;99.90;;;;;;4276063;27;20038;-59
2022/05/01 04:38:26;;;;;;;12.67;5.87;;;14.40;99.90;;;;;;4275687;27;20038;-66
2022/05/01 04:40:28;;;;;;;10.47;6.50;;;14.90;99.90;;;;;;4277334;27;20477;-57
2022/05/01 04:42:30;;;;;;;10.10;5.90;;;15.20;99.90;;;;;;4275421;27;20079;-58
2022/05/01 04:44:31;;;;;;;12.87;6.53;;;15.60;99.90;;;;;;4270942;27;20038;-56
2022/05/01 04:46:32;;;;;;;9.47;6.00;;;15.80;99.90;;;;;;4257792;27;20035;-59
2022/05/01 04:48:33;;;;;;;7.63;5.60;;;15.90;99.90;;;;;;4259732;27;20039;-57
2022/05/01 04:50:35;;;;;;;12.70;6.30;;;16.30;99.90;;;;;;4257648;27;20472;-55
2022/05/01 04:52:37;;;;;;;9.68;6.78;;;16.70;99.90;;;;;;4259393;27;20039;-56
2022/05/01 04:54:38;;;;;;;11.43;6.60;;;16.90;98.90;;;;;;4258760;27;20534;-58
2022/05/01 04:58:59;;;;;;;12.63;6.60;;;17.10;98.30;;;;;;4258487;27;20023;-59
2022/05/01 05:01:00;;;;;;;11.90;7.18;;;17.50;97.60;;;;;;4258032;27;20060;-59
2022/05/01 05:03:03;;;;;;;10.35;6.47;;;17.40;96.90;;;;;;4259391;27;20482;-58
2022/05/01 05:05:06;;;;;;;10.68;6.03;;;17.30;96.80;;;;;;4258052;27;20030;-59
2022/05/01 05:07:07;;;;;;;9.82;7.15;;;17.20;96.50;;;;;;4258970;27;20023;-56
2022/05/01 05:11:28;;;;;;;8.73;5.45;;;17.10;96.00;;;;;;4259265;27;20087;-68
2022/05/01 05:13:30;;;;;;;8.38;5.25;;;17.10;95.90;;;;;;4257222;27;20052;-71
2022/05/01 05:15:31;;;;;;;9.27;5.40;;;16.80;95.80;;;;;;4258611;27;20051;-64
2022/05/01 05:17:33;;;;;;;10.63;6.10;;;16.40;95.70;;;;;;4257033;27;20042;-64
2022/05/01 05:19:35;;;;;;;9.13;5.63;;;16.30;96.10;;;;;;4259024;27;20027;-58
2022/05/01 05:21:36;;;;;;;7.07;5.65;;;16.30;95.60;;;;;;4257143;27;20075;-60
2022/05/01 05:23:37;;;;;;;7.18;6.03;;;15.80;95.90;;;;;;4259043;27;20023;-55
2022/05/01 05:25:38;;;;;;;8.07;4.70;;;15.70;96.50;;;;;;4257287;27;20563;-64
2022/05/01 05:27:39;;;;;;;9.80;5.95;;;15.50;96.30;;;;;;4258643;27;20035;-56
2022/05/01 05:29:41;;;;;;;5.93;5.18;;;15.10;96.90;;;;;;4257415;27;20043;-60
2022/05/01 05:31:42;;;;;;;10.38;5.80;;;15.20;97.50;;;;;;4257948;27;20042;-64
2022/05/01 05:33:43;;;;;;;9.73;6.10;;;15.60;97.10;;;;;;4256960;27;20035;-60
2022/05/01 05:35:45;;;;;;;6.53;5.13;;;15.80;96.60;;;;;;4257988;27;20166;-70
2022/05/01 05:37:46;;;;;;;8.90;6.00;;;15.60;96.60;;;;;;4256411;27;20432;-68
2022/05/01 05:39:49;;;;;;;5.75;4.85;;;15.40;96.70;;;;;;4255476;27;20087;-70
2022/05/01 05:41:50;;;;;;;9.23;5.60;;;15.20;97.20;;;;;;4257611;27;20050;-56
2022/05/01 05:43:51;;;;;;;9.20;4.90;;;15.10;97.50;;;;;;4257136;27;20079;-68
2022/05/01 05:45:53;;;;;;;9.20;5.03;;;15.10;97.60;;;;;;4258428;27;20083;-56
2022/05/01 05:47:54;;;;;;;7.37;5.80;;;15.10;97.60;;;;;;4256920;27;20123;-70
2022/05/01 05:49:55;;;;;;;11.10;5.97;;;15.00;98.00;;;;;;4258327;27;20056;-62
2022/05/01 05:51:56;;;;;;;6.03;5.13;;;15.60;97.70;;;;;;4256949;27;20067;-65
2022/05/01 05:53:57;;;;;;;6.47;4.90;;;15.60;97.20;;;;;;4257616;27;20467;-59
2022/05/01 05:55:59;;;;;;;7.13;5.63;;;15.30;97.50;;;;;;4256747;27;20450;-67
2022/05/01 05:58:00;;;;;;;12.17;5.90;;;14.80;98.50;;;;;;4257891;27;20095;-63
2022/05/01 06:00:04;;;;;;;8.87;5.33;;;14.40;99.50;;;;;;4256338;27;20091;-59
2022/05/01 06:02:05;;;;;;;10.23;6.00;;;14.30;99.80;;;;;;4257552;27;20103;-57
2022/05/01 06:04:06;;;;;;;7.70;5.43;;;14.50;99.90;;;;;;4256296;27;20043;-60
2022/05/01 06:06:07;;;;;;;6.80;4.53;;;14.40;99.90;;;;;;4256583;27;20027;-67
2022/05/01 06:08:09;;;;;;;5.93;5.23;;;14.30;99.90;;;;;;4256339;27;20818;-60
2022/05/01 06:10:10;;;;;;;10.30;5.00;;;14.40;99.90;;;;;;4256939;27;20115;-70
2022/05/01 06:12:12;;;;;;;7.03;4.90;;;14.50;99.90;;;;;;4257027;27;20031;-69
2022/05/01 06:14:13;;;;;;;11.17;5.23;;;14.50;99.90;;;;;;4237628;27;20548;-60
2022/05/01 06:16:14;;;;;;;7.00;4.53;;;14.40;99.90;;;;;;4257750;27;20030;-59
2022/05/01 06:18:15;;;;;;;6.13;4.00;;;14.40;99.90;;;;;;4256301;27;20035;-57
2022/05/01 06:20:17;;;;;;;6.07;4.57;;;14.60;99.90;;;;;;4257495;27;20035;-59
2022/05/01 06:22:18;;;;;;;5.27;3.83;;;15.30;99.90;;;;;;4253140;27;20115;-58
2022/05/01 06:24:19;;;;;;;12.07;4.83;;;15.40;99.90;;;;;;4255263;27;20088;-58
2022/05/01 06:26:21;;;;;;;5.67;4.17;;;15.30;99.90;;;;;;4263414;27;20094;-56
2022/05/01 06:28:22;;;;;;;7.53;4.30;;;15.20;99.90;;;;;;4260630;27;20095;-60
2022/05/01 06:30:23;;;;;;;6.87;4.33;;;15.20;99.90;;;;;;4261064;27;20083;-58
2022/05/01 06:32:25;;;;;;;5.30;4.00;;;15.30;99.90;;;;;;4261191;27;20383;-60
2022/05/01 06:34:26;;;;;;;5.33;4.37;;;15.20;99.90;;;;;;4257244;27;20515;-57
2022/05/01 06:36:27;;;;;;;6.47;3.77;;;15.20;99.90;;;;;;4261346;27;20090;-61
2022/05/01 06:38:29;;;;;;;6.17;3.50;;;15.20;99.90;;;;;;4261941;27;20131;-60
2022/05/01 06:40:31;;;;;;;8.60;4.07;;;15.20;99.90;;;;;;4261658;27;20542;-60
2022/05/01 06:42:33;;;;;;;4.17;3.10;;;15.40;99.90;;;;;;4266373;27;20027;-58
2022/05/01 06:44:34;;;;;;;4.13;3.33;;;15.70;99.90;;;;;;4263543;27;20046;-59
2022/05/01 06:46:35;;;;;;;4.73;2.20;;;15.80;99.90;;;;;;4262720;27;20478;-61
2022/05/01 06:48:36;;;;;;;6.30;2.20;;;15.80;99.90;;;;;;4259976;27;20038;-64
2022/05/01 06:50:38;;;;;;;3.57;2.20;;;15.60;99.60;;;;;;4258944;27;20150;-56
2022/05/01 06:52:39;;;;;;;3.57;2.20;;;15.50;99.60;;;;;;4259706;27;20046;-62
2022/05/01 06:54:40;;;;;;;4.47;2.30;;;15.70;99.40;;;;;;4260842;27;20061;-63
2022/05/01 06:56:44;;;;;;;2.60;2.30;;;15.60;99.40;;;;;;4262678;27;20050;-61
2022/05/01 06:58:45;;;;;;;3.50;2.00;;;15.40;99.50;;;;;;4266639;27;20034;-60
2022/05/01 07:00:46;;;;;;;6.20;2.13;;;15.50;99.40;;;;;;4263097;27;20911;-60
2022/05/01 07:02:49;;;;;;;3.50;2.33;;;15.50;99.60;;;;;;4262217;27;20624;-59
2022/05/01 07:04:50;;;;;;;5.77;2.50;;;15.60;99.50;;;;;;4260715;27;20039;-61
2022/05/01 07:06:51;;;;;;;3.77;2.70;;;15.80;99.10;;;;;;4260950;27;20039;-63
2022/05/01 07:08:53;;;;;;;2.53;2.33;;;15.70;99.00;;;;;;4238959;27;20038;-64
2022/05/01 07:10:54;;;;;;;3.80;2.70;;;15.80;99.10;;;;;;4261122;27;20026;-66
2022/05/01 07:12:55;;;;;;;8.57;3.20;;;15.60;99.10;;;;;;4262057;27;20493;-58
2022/05/01 07:14:56;;;;;;;5.00;2.60;;;15.70;99.20;;;;;;4266220;27;20034;-52
2022/05/01 07:16:57;;;;;;;4.23;2.23;;;15.90;99.20;;;;;;4260868;27;20070;-60
2022/05/01 07:18:58;;;;;;;4.53;2.80;;;16.00;98.80;;;;;;4241071;27;21063;-60
2022/05/01 07:21:00;;;;;;;5.20;2.50;;;16.00;98.90;;;;;;4263731;27;20328;-59
2022/05/01 07:23:03;;;;;;;4.75;2.60;;;16.00;99.00;;;;;;4258034;27;20035;-57
2022/05/01 07:25:04;;;;;;;3.78;2.40;;;16.20;98.90;;;;;;4243523;27;20026;-60
2022/05/01 07:27:05;;;;;;;3.70;2.53;;;16.30;98.70;;;;;;4248094;27;20027;-59
2022/05/01 07:29:08;;;;;;;4.57;2.75;;;16.30;98.60;;;;;;4234312;27;20919;-57
2022/05/01 07:31:09;;;;;;;3.92;2.88;;;16.40;98.30;;;;;;4260401;27;20557;-59
2022/05/01 07:33:10;;;;;;;4.43;2.70;;;16.20;98.50;;;;;;4262317;27;20030;-65
2022/05/01 07:35:11;;;;;;;5.88;2.50;;;16.20;98.80;;;;;;4261918;27;20035;-55
2022/05/01 07:37:14;;;;;;;6.05;2.75;;;16.30;98.40;;;;;;4257050;27;20436;-56
2022/05/01 07:39:15;;;;;;;4.70;2.17;;;16.50;98.30;;;;;;4257072;27;20030;-56
2022/05/01 07:41:17;;;;;;;4.00;2.50;;;16.70;97.70;;;;;;4261802;27;20053;-57
2022/05/01 07:43:18;;;;;;;3.15;2.33;;;16.70;97.50;;;;;;4263183;27;20490;-58
2022/05/01 07:45:19;;;;;;;3.92;2.25;;;16.50;97.60;;;;;;4264217;27;20439;-55
2022/05/01 07:47:20;;;;;;;2.75;2.05;;;16.60;97.60;;;;;;4259049;27;20039;-57
2022/05/01 07:49:21;;;;;;;4.85;2.67;;;16.70;97.60;;;;;;4265860;27;21089;-55
2022/05/01 07:51:22;;;;;;;4.65;2.50;;;16.60;97.30;;;;;;4266347;27;20850;-58
2022/05/01 07:53:23;;;;;;;3.55;2.65;;;16.60;97.90;;;;;;4264916;27;20063;-63
2022/05/01 07:55:24;;;;;;;4.25;2.55;;;16.70;97.80;;;;;;4261707;27;20091;-63
2022/05/01 07:57:26;;;;;;;3.58;2.50;;;17.00;97.70;;;;;;4266012;27;20490;-63
2022/05/01 07:59:27;;;;;;;3.63;2.42;;;17.10;97.40;;;;;;4260831;27;20027;-52
2022/05/01 08:01:28;;;;;;;3.30;2.40;;;17.10;97.20;;;;;;4261440;27;20371;-58
2022/05/01 08:05:49;;;;;;;7.93;2.40;;;17.70;96.60;;;;;;4263115;27;20082;-59
2022/05/01 08:07:54;;;;;;;5.03;2.35;;;17.50;96.40;;;;;;4262041;27;20278;-55
2022/05/01 08:09:55;;;;;;;2.42;2.22;;;17.60;96.20;;;;;;4248282;27;20488;-56
2022/05/01 08:11:57;;;;;;;2.60;2.40;;;17.50;96.20;;;;;;4261397;27;20098;-57
2022/05/01 08:13:58;;;;;;;3.10;2.30;;;17.30;96.50;;;;;;4263638;27;20046;-53
2022/05/01 08:16:00;;;;;;;2.95;2.08;;;17.30;96.10;;;;;;4259733;27;20054;-61
2022/05/01 08:22:41;;;;;;;2.72;2.22;;;17.50;96.10;;;;;;4262187;27;20063;-62
2022/05/01 08:24:42;;;;;;;3.50;2.20;;;17.30;95.50;;;;;;4263896;27;20034;-56
2022/05/01 08:26:47;;;;;;;4.88;2.90;;;17.20;95.70;;;;;;4259563;27;20042;-58
2022/05/01 08:28:52;;;;;;;3.58;2.35;;;17.40;95.60;;;;;;4265095;27;20705;-65
2022/05/01 08:30:53;;;;;;;2.13;1.92;;;17.40;95.30;;;;;;4252778;27;20031;-64
2022/05/01 08:32:55;;;;;;;2.92;1.98;;;17.60;95.50;;;;;;4240739;27;20039;-55
2022/05/01 08:34:57;;;;;;;3.95;2.53;;;17.80;95.20;;;;;;4240592;27;20043;-56
2022/05/01 08:36:59;;;;;;;3.55;1.88;;;17.80;94.90;;;;;;4253579;27;20490;-58
2022/05/01 08:39:00;;;;;;;2.85;1.90;;;17.80;94.70;;;;;;4275725;27;20043;-52
2022/05/01 08:41:02;;;;;;;2.22;1.98;;;17.70;94.30;;;;;;4275316;27;20118;-51
2022/05/01 08:43:03;;;;;;;4.38;2.00;;;17.70;94.20;;;;;;4275753;27;20091;-53
2022/05/01 08:45:08;;;;;;;3.20;2.20;;;17.70;94.20;;;;;;4275344;27;20094;-56
2022/05/01 08:47:16;;;;;;;4.35;2.30;;;17.50;94.30;;;;;;4275831;27;20034;-52
2022/05/01 08:49:19;;;;;;;3.03;2.13;;;17.70;94.20;;;;;;4273919;27;20050;-57
2022/05/01 08:51:21;;;;;;;2.40;1.95;;;17.50;94.20;;;;;;4275855;27;20641;-52
2022/05/01 08:53:23;;;;;;;3.63;2.10;;;17.60;94.00;;;;;;4274326;27;20051;-58
2022/05/01 08:55:24;;;;;;;2.00;1.85;;;17.80;93.60;;;;;;4274851;27;20094;-54
2022/05/01 08:57:28;;;;;;;5.38;2.30;;;17.80;93.40;;;;;;4274456;27;20098;-57
2022/05/01 08:59:31;;;;;;;2.63;2.10;;;17.90;93.50;;;;;;4274824;27;20038;-56
2022/05/01 09:01:34;;;;;;;2.47;2.10;;;18.00;92.80;;;;;;4256812;27;20051;-56
2022/05/01 09:03:36;;;;;;;4.57;1.90;;;17.90;93.20;;;;;;4257920;27;20141;-57
2022/05/01 09:05:39;;;;;;;2.38;2.00;;;18.00;93.20;;;;;;4256672;27;20038;-57
2022/05/01 09:07:40;;;;;;;2.90;1.83;;;17.90;92.90;;;;;;4272515;27;20035;-53
2022/05/01 09:09:42;;;;;;;2.15;1.70;;;18.10;92.70;;;;;;4259892;27;20031;-58
2022/05/01 09:14:04;;;;;;;3.63;1.92;;;18.10;91.70;;;;;;4258167;27;20026;-53
2022/05/01 09:16:12;;;;;;;2.35;2.15;;;18.00;91.30;;;;;;4257251;27;20747;-61
2022/05/01 09:18:16;;;;;;;2.13;1.80;;;18.00;91.40;;;;;;4257343;27;20027;-56
2022/05/01 09:20:18;;;;;;;2.63;1.95;;;18.20;91.50;;;;;;4258417;27;20075;-54
2022/05/01 09:22:20;;;;;;;2.90;1.88;;;18.10;91.30;;;;;;4262935;27;20034;-65
2022/05/01 09:24:28;;;;;;;3.22;1.85;;;18.00;91.40;;;;;;4260919;27;20476;-54
2022/05/01 09:26:37;;;;;;;1.65;1.55;;;18.10;91.10;;;;;;4257137;27;20023;-61
2022/05/01 09:28:56;;;;;;;6.78;3.03;;;18.10;91.20;;;;;;4258152;27;20447;-54
2022/05/01 09:30:58;;;;;;;2.53;1.67;;;18.30;90.80;;;;;;4241078;27;20091;-61
2022/05/01 09:33:00;;;;;;;2.13;1.90;;;18.40;91.00;;;;;;4273447;27;20039;-56
2022/05/01 09:35:01;;;;;;;1.63;1.20;;;18.60;90.90;;;;;;4274731;27;20498;-56
2022/05/01 09:37:16;;;;;;;4.50;1.20;;;18.80;89.70;;;;;;4256180;27;20480;-54
2022/05/01 09:39:19;;;;;;;2.05;1.33;;;18.70;87.20;;;;;;4241332;27;20043;-55
2022/05/01 09:41:27;;;;;;;1.17;0.82;;;18.70;85.70;;;;;;4256889;27;20054;-52
2022/05/01 09:43:47;;;;;;;4.75;1.30;;;18.70;81.70;;;;;;4257715;27;20066;-55
2022/05/01 09:45:48;;;;;;;1.80;1.38;;;18.80;81.10;;;;;;4256828;27;20034;-55
2022/05/01 09:47:49;;;;;;;2.20;1.10;;;18.80;81.80;;;;;;4257547;27;20034;-58
2022/05/01 09:49:51;;;;;;;3.25;1.33;;;18.80;80.80;;;;;;4256671;27;20610;-52
2022/05/01 09:51:56;;;;;;;3.10;1.55;;;18.80;79.90;;;;;;4257650;27;20043;-58
2022/05/01 09:53:59;;;;;;;2.45;1.88;;;18.70;81.00;;;;;;4256319;27;20042;-57
2022/05/01 09:56:01;;;;;;;4.28;3.00;;;18.80;81.40;;;;;;4257318;27;20103;-54
2022/05/01 09:58:14;;;;;;;1.45;1.13;;;18.80;81.30;;;;;;4256657;27;20030;-59
2022/05/01 10:00:53;;;;;;;1.20;0.80;;;18.80;79.30;;;;;;4257266;27;20061;-55
2022/05/01 10:02:54;;;;;;;1.20;1.10;;;18.80;75.50;;;;;;4255262;27;20102;-56
2022/05/01 10:05:03;;;;;;;4.47;1.48;;;18.70;79.10;;;;;;4257256;27;20103;-56
2022/05/01 10:07:05;;;;;;;2.85;1.25;;;18.60;81.10;;;;;;4255868;27;20031;-55
2022/05/01 10:09:08;;;;;;;2.15;1.38;;;18.70;81.10;;;;;;4257711;27;20839;-52
2022/05/01 10:11:14;;;;;;;2.60;1.05;;;18.80;77.80;;;;;;4256542;27;20027;-59
2022/05/01 10:13:16;;;;;;;0.93;0.68;;;19.00;75.50;;;;;;4258056;27;20022;-58
2022/05/01 10:15:20;;;;;;;2.72;0.90;;;19.10;72.80;;;;;;4256587;27;20138;-62
2022/05/01 10:17:21;;;;;;;4.13;1.92;;;19.10;72.70;;;;;;4257133;27;20054;-55
2022/05/01 10:19:23;;;;;;;5.38;2.67;;;19.20;73.20;;;;;;4256624;27;20035;-66
2022/05/01 10:21:27;;;;;;;1.70;1.33;;;19.30;72.60;;;;;;4258076;27;20530;-66
2022/05/01 10:23:29;;;;;;;7.03;2.97;;;19.30;73.80;;;;;;4256359;27;20039;-53
2022/05/01 10:25:35;;;;;;;2.70;0.98;;;19.20;74.00;;;;;;4257104;27;20030;-56
2022/05/01 10:28:12;;;;;;;3.47;1.45;;;19.20;73.10;;;;;;4256373;27;20084;-54
2022/05/01 10:33:16;;;;;;;1.25;1.15;;;19.20;70.40;;;;;;4256731;27;20083;-62
2022/05/01 10:35:45;;;;;;;1.67;1.02;;;19.30;69.00;;;;;;4256695;27;20039;-54
2022/05/01 10:38:02;;;;;;;4.20;1.65;;;19.40;70.10;;;;;;4255487;27;20067;-53
2022/05/01 10:40:04;;;;;;;2.22;1.58;;;19.40;70.10;;;;;;4256047;27;20359;-62
2022/05/01 10:42:05;;;;;;;1.67;1.13;;;19.50;70.90;;;;;;4256194;27;20062;-65
2022/05/01 10:44:06;;;;;;;3.75;1.38;;;19.60;70.80;;;;;;4256052;27;20046;-56
2022/05/01 10:46:16;;;;;;;4.47;1.58;;;19.60;69.90;;;;;;4256011;27;20042;-55
2022/05/01 10:48:36;;;;;;;1.80;1.15;;;19.60;69.70;;;;;;4257107;27;20039;-52
2022/05/01 10:50:38;;;;;;;2.80;0.90;;;19.60;68.50;;;;;;4256173;27;20039;-61
2022/05/01 10:53:01;;;;;;;1.73;1.08;;;19.50;68.40;;;;;;4257416;27;20123;-63
2022/05/01 10:55:05;;;;;;;1.90;1.33;;;19.60;68.70;;;;;;4255887;27;20087;-55
2022/05/01 10:57:09;;;;;;;1.08;0.98;;;19.60;69.10;;;;;;4256814;27;20051;-59
2022/05/01 10:59:28;;;;;;;1.80;1.13;;;19.60;68.50;;;;;;4256575;27;20035;-56
2022/05/01 11:01:52;;;;;;;5.18;1.45;;;19.50;64.40;;;;;;4257011;27;20034;-56
2022/05/01 11:03:56;;;;;;;2.67;1.15;;;19.50;63.30;;;;;;4256156;27;20079;-62
2022/05/01 11:06:03;;;;;;;2.58;1.17;;;19.50;65.10;;;;;;4257117;27;20871;-55
2022/05/01 11:08:05;;;;;;;2.67;1.45;;;19.60;65.20;;;;;;4256083;27;20042;-56